메인 페이지
METAR-TAF:

METAR-TAF

공항 :

Turaif, 사우디아라비아

위도: 31-41N, 경도: 038-44E, 고도: 813m

현재 날씨관측

예보는 39분 전, 06:00시(UTC)에 발표되었습니다.
6kt
온도 34°C
습도 11%
기압 1010 hPa
시정 10km 이상
1500m 미만 상공 구름 및 적란운 없음

METAR: OETR 210600Z 28006KT CAVOK 34/00 Q1010 NOSIG

시각: 09:39 (06:39 UTC)

예보

예보는 7 시간 39분 전, 23:00시(UTC)에 발표되었습니다.
예보 대상 시간: 21일 00시부터 22일 06시까지 (UTC)
북동10kt
시정 10km 이상
1500m 미만 상공 구름 및 적란운 없음
전환 중
21일 10시부터 21일 12시까지 (UTC)
남서14kt
전환 중
21일 18시부터 21일 20시까지 (UTC)
북북서10kt

TAF: OETR 202300Z 2100/2206 05010KT CAVOK BECMG 2110/2112 22014KT BECMG 2118/2120 33010KT

4,000개 이상의 공항 관측 자료 및 예보 (METAR 및 TAF 보고).

지도상에서 검색 가능한 기상관측소가 노란 점과 빨간 점으로 표시되어 있습니다.

기상관측소 명을 보려면 표시 위로 마우스를 이동하세요.

날씨 관측과 예보를 보려면 클릭하세요.

지도 변경 : 확대하려면 엑스 표시가 있는 녹색 버튼, 축소하려면 빼기 표시가 있는 녹색 버튼, 다음 페이지의 지도를 보려면 녹색 화살표를 클릭하세요.


METAR-TAF: